sensor_id;sensor_type;location;lat;lon;timestamp;P1;durP1;ratioP1;P2;durP2;ratioP2
65998;SDS011;52766;56.008;37.440;2023-07-09T00:02:25;20.65;;;9.98;;
65998;SDS011;52766;56.008;37.440;2023-07-09T00:04:54;17.65;;;10.60;;
65998;SDS011;52766;56.008;37.440;2023-07-09T00:07:27;21.80;;;10.95;;
65998;SDS011;52766;56.008;37.440;2023-07-09T00:09:54;15.80;;;8.80;;
65998;SDS011;52766;56.008;37.440;2023-07-09T00:12:20;18.38;;;9.02;;
65998;SDS011;52766;56.008;37.440;2023-07-09T00:14:46;16.70;;;9.20;;
65998;SDS011;52766;56.008;37.440;2023-07-09T00:19:59;16.52;;;8.65;;
65998;SDS011;52766;56.008;37.440;2023-07-09T00:22:25;18.27;;;8.68;;
65998;SDS011;52766;56.008;37.440;2023-07-09T00:24:56;18.70;;;9.00;;
65998;SDS011;52766;56.008;37.440;2023-07-09T00:27:26;17.33;;;9.15;;
65998;SDS011;52766;56.008;37.440;2023-07-09T00:29:53;13.02;;;8.13;;
65998;SDS011;52766;56.008;37.440;2023-07-09T00:32:19;11.63;;;8.35;;
65998;SDS011;52766;56.008;37.440;2023-07-09T00:34:50;15.52;;;7.82;;
65998;SDS011;52766;56.008;37.440;2023-07-09T00:37:23;11.15;;;6.28;;
65998;SDS011;52766;56.008;37.440;2023-07-09T00:39:52;13.40;;;8.25;;
65998;SDS011;52766;56.008;37.440;2023-07-09T00:42:19;15.63;;;8.07;;
65998;SDS011;52766;56.008;37.440;2023-07-09T00:44:46;13.75;;;8.98;;
65998;SDS011;52766;56.008;37.440;2023-07-09T00:47:25;19.08;;;10.13;;
65998;SDS011;52766;56.008;37.440;2023-07-09T00:53:03;11.90;;;6.80;;
65998;SDS011;52766;56.008;37.440;2023-07-09T00:55:36;13.13;;;8.30;;
65998;SDS011;52766;56.008;37.440;2023-07-09T00:58:06;8.85;;;6.13;;
65998;SDS011;52766;56.008;37.440;2023-07-09T01:00:39;12.90;;;6.30;;
65998;SDS011;52766;56.008;37.440;2023-07-09T01:05:59;16.88;;;9.68;;
65998;SDS011;52766;56.008;37.440;2023-07-09T01:08:27;17.63;;;10.18;;
65998;SDS011;52766;56.008;37.440;2023-07-09T01:10:56;12.30;;;6.57;;
65998;SDS011;52766;56.008;37.440;2023-07-09T01:13:24;11.05;;;6.93;;
65998;SDS011;52766;56.008;37.440;2023-07-09T01:15:52;10.13;;;5.85;;
65998;SDS011;52766;56.008;37.440;2023-07-09T01:18:19;11.80;;;6.15;;
65998;SDS011;52766;56.008;37.440;2023-07-09T01:20:47;10.27;;;5.43;;
65998;SDS011;52766;56.008;37.440;2023-07-09T01:23:14;10.80;;;5.82;;
65998;SDS011;52766;56.008;37.440;2023-07-09T01:25:46;10.63;;;6.15;;
65998;SDS011;52766;56.008;37.440;2023-07-09T01:28:19;12.52;;;6.75;;
65998;SDS011;52766;56.008;37.440;2023-07-09T01:30:48;9.73;;;6.07;;
65998;SDS011;52766;56.008;37.440;2023-07-09T01:33:21;11.55;;;5.82;;
65998;SDS011;52766;56.008;37.440;2023-07-09T01:35:49;9.80;;;6.75;;
65998;SDS011;52766;56.008;37.440;2023-07-09T01:38:15;10.38;;;6.20;;
65998;SDS011;52766;56.008;37.440;2023-07-09T01:40:46;10.23;;;6.18;;
65998;SDS011;52766;56.008;37.440;2023-07-09T01:43:14;10.93;;;5.95;;
65998;SDS011;52766;56.008;37.440;2023-07-09T01:45:40;9.80;;;6.47;;
65998;SDS011;52766;56.008;37.440;2023-07-09T01:48:07;11.63;;;6.45;;
65998;SDS011;52766;56.008;37.440;2023-07-09T01:50:42;12.43;;;5.93;;
65998;SDS011;52766;56.008;37.440;2023-07-09T01:53:12;14.27;;;7.00;;
65998;SDS011;52766;56.008;37.440;2023-07-09T01:55:41;16.48;;;8.63;;
65998;SDS011;52766;56.008;37.440;2023-07-09T01:58:07;9.57;;;5.70;;
65998;SDS011;52766;56.008;37.440;2023-07-09T02:00:35;13.25;;;8.20;;
65998;SDS011;52766;56.008;37.440;2023-07-09T02:03:03;13.10;;;7.68;;
65998;SDS011;52766;56.008;37.440;2023-07-09T02:05:32;13.88;;;7.35;;
65998;SDS011;52766;56.008;37.440;2023-07-09T02:07:59;10.30;;;6.03;;
65998;SDS011;52766;56.008;37.440;2023-07-09T02:10:25;16.33;;;8.07;;
65998;SDS011;52766;56.008;37.440;2023-07-09T02:12:52;13.52;;;8.25;;
65998;SDS011;52766;56.008;37.440;2023-07-09T02:15:18;14.68;;;7.88;;
65998;SDS011;52766;56.008;37.440;2023-07-09T02:17:44;14.73;;;7.80;;
65998;SDS011;52766;56.008;37.440;2023-07-09T02:20:11;19.17;;;8.40;;
65998;SDS011;52766;56.008;37.440;2023-07-09T02:22:38;11.00;;;7.20;;
65998;SDS011;52766;56.008;37.440;2023-07-09T02:25:05;13.00;;;7.80;;
65998;SDS011;52766;56.008;37.440;2023-07-09T02:27:33;15.85;;;9.20;;
65998;SDS011;52766;56.008;37.440;2023-07-09T02:30:00;13.32;;;7.82;;
65998;SDS011;52766;56.008;37.440;2023-07-09T02:32:31;14.18;;;7.57;;
65998;SDS011;52766;56.008;37.440;2023-07-09T02:34:57;13.88;;;7.80;;
65998;SDS011;52766;56.008;37.440;2023-07-09T02:37:24;14.88;;;8.35;;
65998;SDS011;52766;56.008;37.440;2023-07-09T02:39:51;15.15;;;8.60;;
65998;SDS011;52766;56.008;37.440;2023-07-09T02:42:20;13.85;;;7.75;;
65998;SDS011;52766;56.008;37.440;2023-07-09T02:44:48;13.20;;;7.68;;
65998;SDS011;52766;56.008;37.440;2023-07-09T02:47:16;14.07;;;7.65;;
65998;SDS011;52766;56.008;37.440;2023-07-09T02:49:43;13.45;;;8.52;;
65998;SDS011;52766;56.008;37.440;2023-07-09T02:52:09;17.13;;;8.52;;
65998;SDS011;52766;56.008;37.440;2023-07-09T02:54:35;15.50;;;8.43;;
65998;SDS011;52766;56.008;37.440;2023-07-09T02:57:01;16.52;;;8.98;;
65998;SDS011;52766;56.008;37.440;2023-07-09T02:59:28;16.35;;;7.85;;
65998;SDS011;52766;56.008;37.440;2023-07-09T03:01:56;17.17;;;8.02;;
65998;SDS011;52766;56.008;37.440;2023-07-09T03:04:25;16.98;;;8.50;;
65998;SDS011;52766;56.008;37.440;2023-07-09T03:06:56;20.52;;;8.70;;
65998;SDS011;52766;56.008;37.440;2023-07-09T03:09:24;18.90;;;8.90;;
65998;SDS011;52766;56.008;37.440;2023-07-09T03:11:51;14.73;;;8.77;;
65998;SDS011;52766;56.008;37.440;2023-07-09T03:14:23;15.45;;;7.88;;
65998;SDS011;52766;56.008;37.440;2023-07-09T03:16:53;18.50;;;10.60;;
65998;SDS011;52766;56.008;37.440;2023-07-09T03:19:21;16.15;;;9.18;;
65998;SDS011;52766;56.008;37.440;2023-07-09T03:21:47;17.08;;;8.25;;
65998;SDS011;52766;56.008;37.440;2023-07-09T03:24:14;16.63;;;8.23;;
65998;SDS011;52766;56.008;37.440;2023-07-09T03:26:45;15.95;;;10.07;;
65998;SDS011;52766;56.008;37.440;2023-07-09T03:29:11;16.98;;;9.25;;
65998;SDS011;52766;56.008;37.440;2023-07-09T03:31:38;17.90;;;10.32;;
65998;SDS011;52766;56.008;37.440;2023-07-09T03:34:04;20.67;;;14.13;;
65998;SDS011;52766;56.008;37.440;2023-07-09T03:36:30;32.95;;;19.77;;
65998;SDS011;52766;56.008;37.440;2023-07-09T03:38:56;24.23;;;14.13;;
65998;SDS011;52766;56.008;37.440;2023-07-09T03:41:24;13.65;;;8.10;;
65998;SDS011;52766;56.008;37.440;2023-07-09T03:43:51;15.68;;;8.18;;
65998;SDS011;52766;56.008;37.440;2023-07-09T03:46:19;13.10;;;7.53;;
65998;SDS011;52766;56.008;37.440;2023-07-09T03:48:45;15.80;;;8.77;;
65998;SDS011;52766;56.008;37.440;2023-07-09T03:51:11;13.48;;;6.88;;
65998;SDS011;52766;56.008;37.440;2023-07-09T03:53:37;13.15;;;7.45;;
65998;SDS011;52766;56.008;37.440;2023-07-09T03:56:03;13.23;;;7.53;;
65998;SDS011;52766;56.008;37.440;2023-07-09T03:58:30;14.93;;;8.23;;
65998;SDS011;52766;56.008;37.440;2023-07-09T04:00:56;16.33;;;9.10;;
65998;SDS011;52766;56.008;37.440;2023-07-09T04:03:22;16.33;;;8.27;;
65998;SDS011;52766;56.008;37.440;2023-07-09T04:05:48;13.07;;;8.65;;
65998;SDS011;52766;56.008;37.440;2023-07-09T04:08:14;18.45;;;7.75;;
65998;SDS011;52766;56.008;37.440;2023-07-09T04:10:41;11.63;;;7.15;;
65998;SDS011;52766;56.008;37.440;2023-07-09T04:13:07;10.68;;;6.30;;
65998;SDS011;52766;56.008;37.440;2023-07-09T04:15:33;14.77;;;6.80;;
65998;SDS011;52766;56.008;37.440;2023-07-09T04:18:00;15.63;;;7.35;;
65998;SDS011;52766;56.008;37.440;2023-07-09T04:20:26;14.07;;;7.22;;
65998;SDS011;52766;56.008;37.440;2023-07-09T04:22:54;14.55;;;6.55;;
65998;SDS011;52766;56.008;37.440;2023-07-09T04:25:20;10.15;;;5.75;;
65998;SDS011;52766;56.008;37.440;2023-07-09T04:27:49;12.15;;;4.80;;
65998;SDS011;52766;56.008;37.440;2023-07-09T04:30:17;7.82;;;3.90;;
65998;SDS011;52766;56.008;37.440;2023-07-09T04:32:44;8.63;;;3.42;;
65998;SDS011;52766;56.008;37.440;2023-07-09T04:35:11;6.65;;;3.20;;
65998;SDS011;52766;56.008;37.440;2023-07-09T04:37:38;6.75;;;3.65;;
65998;SDS011;52766;56.008;37.440;2023-07-09T04:40:06;7.47;;;4.05;;
65998;SDS011;52766;56.008;37.440;2023-07-09T04:42:40;5.72;;;3.58;;
65998;SDS011;52766;56.008;37.440;2023-07-09T04:45:09;9.70;;;4.05;;
65998;SDS011;52766;56.008;37.440;2023-07-09T04:50:35;6.22;;;3.63;;
65998;SDS011;52766;56.008;37.440;2023-07-09T04:53:11;6.47;;;3.58;;
65998;SDS011;52766;56.008;37.440;2023-07-09T04:58:35;5.60;;;2.90;;
65998;SDS011;52766;56.008;37.440;2023-07-09T05:01:07;7.70;;;3.50;;
65998;SDS011;52766;56.008;37.440;2023-07-09T05:03:37;7.32;;;3.25;;
65998;SDS011;52766;56.008;37.440;2023-07-09T05:06:05;7.10;;;3.13;;
65998;SDS011;52766;56.008;37.440;2023-07-09T05:08:33;7.07;;;3.70;;
65998;SDS011;52766;56.008;37.440;2023-07-09T05:11:14;6.45;;;3.10;;
65998;SDS011;52766;56.008;37.440;2023-07-09T05:13:48;4.53;;;2.80;;
65998;SDS011;52766;56.008;37.440;2023-07-09T05:16:17;10.43;;;3.33;;
65998;SDS011;52766;56.008;37.440;2023-07-09T05:19:15;6.70;;;3.63;;
65998;SDS011;52766;56.008;37.440;2023-07-09T05:21:49;9.15;;;3.90;;
65998;SDS011;52766;56.008;37.440;2023-07-09T05:27:32;7.30;;;3.78;;
65998;SDS011;52766;56.008;37.440;2023-07-09T05:30:08;8.52;;;4.00;;
65998;SDS011;52766;56.008;37.440;2023-07-09T05:33:03;7.63;;;4.10;;
65998;SDS011;52766;56.008;37.440;2023-07-09T05:35:58;7.50;;;4.10;;
65998;SDS011;52766;56.008;37.440;2023-07-09T05:38:29;9.15;;;3.72;;
65998;SDS011;52766;56.008;37.440;2023-07-09T05:41:20;10.27;;;3.95;;
65998;SDS011;52766;56.008;37.440;2023-07-09T05:43:55;6.20;;;3.70;;
65998;SDS011;52766;56.008;37.440;2023-07-09T05:46:25;7.80;;;4.07;;
65998;SDS011;52766;56.008;37.440;2023-07-09T05:48:55;9.13;;;3.95;;
65998;SDS011;52766;56.008;37.440;2023-07-09T05:51:23;5.93;;;3.05;;
65998;SDS011;52766;56.008;37.440;2023-07-09T05:53:51;6.72;;;2.85;;
65998;SDS011;52766;56.008;37.440;2023-07-09T05:56:21;4.32;;;2.70;;
65998;SDS011;52766;56.008;37.440;2023-07-09T05:58:47;5.28;;;2.67;;
65998;SDS011;52766;56.008;37.440;2023-07-09T06:01:18;9.85;;;3.60;;
65998;SDS011;52766;56.008;37.440;2023-07-09T06:03:49;6.15;;;3.22;;
65998;SDS011;52766;56.008;37.440;2023-07-09T06:06:18;5.72;;;3.15;;
65998;SDS011;52766;56.008;37.440;2023-07-09T06:08:52;7.30;;;3.92;;
65998;SDS011;52766;56.008;37.440;2023-07-09T06:11:27;5.88;;;2.97;;
65998;SDS011;52766;56.008;37.440;2023-07-09T06:13:56;6.32;;;3.08;;
65998;SDS011;52766;56.008;37.440;2023-07-09T06:16:29;5.50;;;2.75;;
65998;SDS011;52766;56.008;37.440;2023-07-09T06:19:00;5.10;;;2.60;;
65998;SDS011;52766;56.008;37.440;2023-07-09T06:21:26;5.97;;;2.70;;
65998;SDS011;52766;56.008;37.440;2023-07-09T06:24:18;4.57;;;2.50;;
65998;SDS011;52766;56.008;37.440;2023-07-09T06:26:51;4.80;;;2.50;;
65998;SDS011;52766;56.008;37.440;2023-07-09T06:29:33;4.88;;;2.92;;
65998;SDS011;52766;56.008;37.440;2023-07-09T06:32:05;5.95;;;2.78;;
65998;SDS011;52766;56.008;37.440;2023-07-09T06:34:35;5.90;;;2.95;;
65998;SDS011;52766;56.008;37.440;2023-07-09T06:37:03;5.03;;;3.05;;
65998;SDS011;52766;56.008;37.440;2023-07-09T06:39:30;7.40;;;3.20;;
65998;SDS011;52766;56.008;37.440;2023-07-09T06:42:23;8.32;;;3.22;;
65998;SDS011;52766;56.008;37.440;2023-07-09T06:45:06;4.80;;;2.50;;
65998;SDS011;52766;56.008;37.440;2023-07-09T06:47:40;4.13;;;2.33;;
65998;SDS011;52766;56.008;37.440;2023-07-09T06:52:40;3.45;;;2.30;;
65998;SDS011;52766;56.008;37.440;2023-07-09T06:55:07;3.35;;;1.65;;
65998;SDS011;52766;56.008;37.440;2023-07-09T06:57:35;5.85;;;2.40;;
65998;SDS011;52766;56.008;37.440;2023-07-09T07:00:02;4.20;;;2.25;;
65998;SDS011;52766;56.008;37.440;2023-07-09T07:02:34;4.68;;;2.33;;
65998;SDS011;52766;56.008;37.440;2023-07-09T07:05:04;5.05;;;2.83;;
65998;SDS011;52766;56.008;37.440;2023-07-09T07:07:49;4.63;;;2.58;;
65998;SDS011;52766;56.008;37.440;2023-07-09T07:10:27;6.82;;;2.50;;
65998;SDS011;52766;56.008;37.440;2023-07-09T07:13:03;3.88;;;2.00;;
65998;SDS011;52766;56.008;37.440;2023-07-09T07:15:31;6.20;;;3.05;;
65998;SDS011;52766;56.008;37.440;2023-07-09T07:17:58;8.43;;;2.95;;
65998;SDS011;52766;56.008;37.440;2023-07-09T07:20:27;4.60;;;2.20;;
65998;SDS011;52766;56.008;37.440;2023-07-09T07:22:59;3.50;;;2.13;;
65998;SDS011;52766;56.008;37.440;2023-07-09T07:25:31;7.32;;;2.83;;
65998;SDS011;52766;56.008;37.440;2023-07-09T07:28:00;4.80;;;2.08;;
65998;SDS011;52766;56.008;37.440;2023-07-09T07:30:28;3.42;;;1.90;;
65998;SDS011;52766;56.008;37.440;2023-07-09T07:33:07;7.53;;;3.00;;
65998;SDS011;52766;56.008;37.440;2023-07-09T07:36:03;4.47;;;2.10;;
65998;SDS011;52766;56.008;37.440;2023-07-09T07:38:47;6.32;;;2.75;;
65998;SDS011;52766;56.008;37.440;2023-07-09T07:41:13;4.57;;;2.47;;
65998;SDS011;52766;56.008;37.440;2023-07-09T07:44:11;6.43;;;2.55;;
65998;SDS011;52766;56.008;37.440;2023-07-09T07:46:40;4.80;;;2.25;;
65998;SDS011;52766;56.008;37.440;2023-07-09T07:49:17;5.07;;;2.53;;
65998;SDS011;52766;56.008;37.440;2023-07-09T07:52:09;8.13;;;4.68;;
65998;SDS011;52766;56.008;37.440;2023-07-09T07:54:36;5.68;;;2.85;;
65998;SDS011;52766;56.008;37.440;2023-07-09T07:57:05;3.78;;;1.88;;
65998;SDS011;52766;56.008;37.440;2023-07-09T07:59:42;5.60;;;2.40;;
65998;SDS011;52766;56.008;37.440;2023-07-09T08:02:38;5.10;;;2.00;;
65998;SDS011;52766;56.008;37.440;2023-07-09T08:05:07;4.85;;;2.45;;
65998;SDS011;52766;56.008;37.440;2023-07-09T08:07:35;4.95;;;2.78;;
65998;SDS011;52766;56.008;37.440;2023-07-09T08:10:07;7.38;;;2.50;;
65998;SDS011;52766;56.008;37.440;2023-07-09T08:12:42;4.68;;;2.35;;
65998;SDS011;52766;56.008;37.440;2023-07-09T08:15:12;5.70;;;2.58;;
65998;SDS011;52766;56.008;37.440;2023-07-09T08:17:41;4.32;;;1.98;;
65998;SDS011;52766;56.008;37.440;2023-07-09T08:20:10;6.65;;;2.78;;
65998;SDS011;52766;56.008;37.440;2023-07-09T08:22:41;5.03;;;2.30;;
65998;SDS011;52766;56.008;37.440;2023-07-09T08:25:17;3.83;;;1.67;;
65998;SDS011;52766;56.008;37.440;2023-07-09T08:27:46;4.55;;;2.05;;
65998;SDS011;52766;56.008;37.440;2023-07-09T08:30:21;3.47;;;1.90;;
65998;SDS011;52766;56.008;37.440;2023-07-09T08:32:51;5.25;;;2.45;;
65998;SDS011;52766;56.008;37.440;2023-07-09T08:35:31;5.10;;;2.33;;
65998;SDS011;52766;56.008;37.440;2023-07-09T08:38:33;5.05;;;2.50;;
65998;SDS011;52766;56.008;37.440;2023-07-09T08:44:09;4.65;;;2.50;;
65998;SDS011;52766;56.008;37.440;2023-07-09T08:47:17;4.68;;;2.20;;
65998;SDS011;52766;56.008;37.440;2023-07-09T08:53:01;5.30;;;2.15;;
65998;SDS011;52766;56.008;37.440;2023-07-09T08:55:38;3.30;;;2.00;;
65998;SDS011;52766;56.008;37.440;2023-07-09T08:58:35;3.40;;;1.98;;
65998;SDS011;52766;56.008;37.440;2023-07-09T09:01:12;4.65;;;2.55;;
65998;SDS011;52766;56.008;37.440;2023-07-09T09:03:52;5.55;;;2.50;;
65998;SDS011;52766;56.008;37.440;2023-07-09T09:06:30;4.55;;;2.40;;
65998;SDS011;52766;56.008;37.440;2023-07-09T09:12:04;7.45;;;4.25;;
65998;SDS011;52766;56.008;37.440;2023-07-09T09:14:56;10.80;;;6.55;;
65998;SDS011;52766;56.008;37.440;2023-07-09T09:17:32;9.13;;;2.97;;
65998;SDS011;52766;56.008;37.440;2023-07-09T09:20:17;4.55;;;2.17;;
65998;SDS011;52766;56.008;37.440;2023-07-09T09:23:18;4.78;;;2.70;;
65998;SDS011;52766;56.008;37.440;2023-07-09T09:25:52;4.38;;;2.53;;
65998;SDS011;52766;56.008;37.440;2023-07-09T09:28:35;6.72;;;2.70;;
65998;SDS011;52766;56.008;37.440;2023-07-09T09:33:48;3.75;;;2.45;;
65998;SDS011;52766;56.008;37.440;2023-07-09T09:36:47;4.97;;;2.40;;
65998;SDS011;52766;56.008;37.440;2023-07-09T09:42:25;6.45;;;2.90;;
65998;SDS011;52766;56.008;37.440;2023-07-09T09:45:12;7.43;;;2.40;;
65998;SDS011;52766;56.008;37.440;2023-07-09T09:47:57;6.63;;;3.35;;
65998;SDS011;52766;56.008;37.440;2023-07-09T09:50:38;3.50;;;2.20;;
65998;SDS011;52766;56.008;37.440;2023-07-09T09:53:24;5.50;;;2.47;;
65998;SDS011;52766;56.008;37.440;2023-07-09T09:55:52;5.43;;;2.35;;
65998;SDS011;52766;56.008;37.440;2023-07-09T10:01:18;5.07;;;2.40;;
65998;SDS011;52766;56.008;37.440;2023-07-09T10:03:59;3.65;;;2.25;;
65998;SDS011;52766;56.008;37.440;2023-07-09T10:06:37;5.47;;;2.55;;
65998;SDS011;52766;56.008;37.440;2023-07-09T10:12:28;4.57;;;2.40;;
65998;SDS011;52766;56.008;37.440;2023-07-09T10:22:04;3.67;;;2.00;;
65998;SDS011;52766;56.008;37.440;2023-07-09T10:27:34;3.97;;;2.35;;
65998;SDS011;52766;56.008;37.440;2023-07-09T10:40:36;5.90;;;2.45;;
65998;SDS011;52766;56.008;37.440;2023-07-09T10:43:10;4.75;;;2.45;;
65998;SDS011;52766;56.008;37.440;2023-07-09T10:46:14;4.88;;;2.20;;
65998;SDS011;52766;56.008;37.440;2023-07-09T10:49:02;4.93;;;1.58;;
65998;SDS011;52766;56.008;37.440;2023-07-09T10:51:50;3.08;;;2.00;;
65998;SDS011;52766;56.008;37.440;2023-07-09T10:57:48;5.20;;;2.67;;
65998;SDS011;52766;56.008;37.440;2023-07-09T11:00:44;3.92;;;1.90;;
65998;SDS011;52766;56.008;37.440;2023-07-09T11:07:00;3.58;;;2.38;;
65998;SDS011;52766;56.008;37.440;2023-07-09T11:09:40;4.45;;;2.42;;
65998;SDS011;52766;56.008;37.440;2023-07-09T11:12:16;6.00;;;2.50;;
65998;SDS011;52766;56.008;37.440;2023-07-09T11:15:03;5.15;;;2.78;;
65998;SDS011;52766;56.008;37.440;2023-07-09T11:18:01;3.90;;;1.95;;
65998;SDS011;52766;56.008;37.440;2023-07-09T11:21:14;6.45;;;3.10;;
65998;SDS011;52766;56.008;37.440;2023-07-09T11:23:52;5.63;;;2.80;;
65998;SDS011;52766;56.008;37.440;2023-07-09T11:26:32;4.68;;;2.60;;
65998;SDS011;52766;56.008;37.440;2023-07-09T11:29:44;4.32;;;2.20;;
65998;SDS011;52766;56.008;37.440;2023-07-09T11:32:21;6.28;;;2.50;;
65998;SDS011;52766;56.008;37.440;2023-07-09T11:35:08;4.57;;;2.72;;
65998;SDS011;52766;56.008;37.440;2023-07-09T11:37:44;4.43;;;2.72;;
65998;SDS011;52766;56.008;37.440;2023-07-09T11:40:35;4.80;;;2.50;;
65998;SDS011;52766;56.008;37.440;2023-07-09T11:43:35;4.43;;;2.40;;
65998;SDS011;52766;56.008;37.440;2023-07-09T11:49:21;5.22;;;2.67;;
65998;SDS011;52766;56.008;37.440;2023-07-09T11:55:38;4.20;;;2.08;;
65998;SDS011;52766;56.008;37.440;2023-07-09T11:58:10;3.83;;;2.20;;
65998;SDS011;52766;56.008;37.440;2023-07-09T12:01:09;7.28;;;2.97;;
65998;SDS011;52766;56.008;37.440;2023-07-09T12:03:47;4.40;;;2.58;;
65998;SDS011;52766;56.008;37.440;2023-07-09T12:06:31;5.28;;;2.40;;
65998;SDS011;52766;56.008;37.440;2023-07-09T12:08:58;3.80;;;2.45;;
65998;SDS011;52766;56.008;37.440;2023-07-09T12:11:58;3.30;;;2.05;;
65998;SDS011;52766;56.008;37.440;2023-07-09T12:17:41;4.07;;;2.53;;
65998;SDS011;52766;56.008;37.440;2023-07-09T12:20:24;8.45;;;3.22;;
65998;SDS011;52766;56.008;37.440;2023-07-09T12:23:33;6.35;;;2.97;;
65998;SDS011;52766;56.008;37.440;2023-07-09T12:26:19;4.30;;;2.70;;
65998;SDS011;52766;56.008;37.440;2023-07-09T12:28:57;8.73;;;2.67;;
65998;SDS011;52766;56.008;37.440;2023-07-09T12:31:39;4.03;;;2.22;;
65998;SDS011;52766;56.008;37.440;2023-07-09T12:34:14;5.97;;;3.08;;
65998;SDS011;52766;56.008;37.440;2023-07-09T12:37:04;5.75;;;2.28;;
65998;SDS011;52766;56.008;37.440;2023-07-09T12:39:39;3.83;;;2.30;;
65998;SDS011;52766;56.008;37.440;2023-07-09T12:42:34;4.03;;;2.40;;
65998;SDS011;52766;56.008;37.440;2023-07-09T12:48:04;3.80;;;2.28;;
65998;SDS011;52766;56.008;37.440;2023-07-09T12:50:37;4.88;;;2.60;;
65998;SDS011;52766;56.008;37.440;2023-07-09T12:53:17;6.00;;;2.50;;
65998;SDS011;52766;56.008;37.440;2023-07-09T12:56:11;5.30;;;2.60;;
65998;SDS011;52766;56.008;37.440;2023-07-09T12:59:07;7.63;;;3.13;;
65998;SDS011;52766;56.008;37.440;2023-07-09T13:02:05;8.80;;;3.65;;
65998;SDS011;52766;56.008;37.440;2023-07-09T13:12:33;3.38;;;2.08;;
65998;SDS011;52766;56.008;37.440;2023-07-09T13:16:03;4.85;;;2.50;;
65998;SDS011;52766;56.008;37.440;2023-07-09T13:18:14;3.75;;;2.00;;
65998;SDS011;52766;56.008;37.440;2023-07-09T13:21:13;8.02;;;2.80;;
65998;SDS011;52766;56.008;37.440;2023-07-09T13:24:00;3.65;;;2.20;;
65998;SDS011;52766;56.008;37.440;2023-07-09T13:26:36;2.92;;;1.80;;
65998;SDS011;52766;56.008;37.440;2023-07-09T13:30:05;4.53;;;2.42;;
65998;SDS011;52766;56.008;37.440;2023-07-09T13:33:08;3.50;;;2.25;;
65998;SDS011;52766;56.008;37.440;2023-07-09T13:40:34;5.13;;;2.35;;
65998;SDS011;52766;56.008;37.440;2023-07-09T13:43:29;5.00;;;1.90;;
65998;SDS011;52766;56.008;37.440;2023-07-09T13:46:02;6.60;;;2.20;;
65998;SDS011;52766;56.008;37.440;2023-07-09T13:48:32;3.97;;;2.28;;
65998;SDS011;52766;56.008;37.440;2023-07-09T13:51:05;3.63;;;2.50;;
65998;SDS011;52766;56.008;37.440;2023-07-09T13:56:26;4.88;;;2.30;;
65998;SDS011;52766;56.008;37.440;2023-07-09T14:03:20;4.35;;;1.98;;
65998;SDS011;52766;56.008;37.440;2023-07-09T14:10:22;5.32;;;2.28;;
65998;SDS011;52766;56.008;37.440;2023-07-09T14:14:01;3.80;;;1.80;;
65998;SDS011;52766;56.008;37.440;2023-07-09T14:16:38;3.63;;;2.28;;
65998;SDS011;52766;56.008;37.440;2023-07-09T14:20:08;5.40;;;2.42;;
65998;SDS011;52766;56.008;37.440;2023-07-09T14:39:00;4.55;;;2.25;;
65998;SDS011;52766;56.008;37.440;2023-07-09T14:42:19;4.47;;;2.70;;
65998;SDS011;52766;56.008;37.440;2023-07-09T14:45:21;3.42;;;2.40;;
65998;SDS011;52766;56.008;37.440;2023-07-09T15:06:38;2.80;;;1.60;;
65998;SDS011;52766;56.008;37.440;2023-07-09T15:10:06;4.47;;;2.50;;
65998;SDS011;52766;56.008;37.440;2023-07-09T15:15:32;3.90;;;2.65;;
65998;SDS011;52766;56.008;37.440;2023-07-09T15:21:17;4.90;;;2.80;;
65998;SDS011;52766;56.008;37.440;2023-07-09T15:27:58;6.38;;;2.55;;
65998;SDS011;52766;56.008;37.440;2023-07-09T15:34:43;4.25;;;2.65;;
65998;SDS011;52766;56.008;37.440;2023-07-09T15:37:23;7.28;;;3.17;;
65998;SDS011;52766;56.008;37.440;2023-07-09T15:39:59;7.30;;;2.88;;
65998;SDS011;52766;56.008;37.440;2023-07-09T15:50:17;4.10;;;2.55;;
65998;SDS011;52766;56.008;37.440;2023-07-09T15:52:55;5.22;;;2.28;;
65998;SDS011;52766;56.008;37.440;2023-07-09T15:57:08;4.70;;;2.67;;
65998;SDS011;52766;56.008;37.440;2023-07-09T16:00:25;5.25;;;2.28;;
65998;SDS011;52766;56.008;37.440;2023-07-09T16:37:09;6.03;;;2.50;;
65998;SDS011;52766;56.008;37.440;2023-07-09T16:40:18;3.60;;;2.10;;
65998;SDS011;52766;56.008;37.440;2023-07-09T16:43:23;4.32;;;1.73;;
65998;SDS011;52766;56.008;37.440;2023-07-09T16:47:02;4.90;;;2.08;;
65998;SDS011;52766;56.008;37.440;2023-07-09T16:50:17;3.50;;;1.50;;
65998;SDS011;52766;56.008;37.440;2023-07-09T16:53:13;6.30;;;1.90;;
65998;SDS011;52766;56.008;37.440;2023-07-09T17:04:51;3.60;;;2.05;;
65998;SDS011;52766;56.008;37.440;2023-07-09T17:08:21;2.35;;;1.70;;
65998;SDS011;52766;56.008;37.440;2023-07-09T18:00:46;3.33;;;1.70;;
65998;SDS011;52766;56.008;37.440;2023-07-09T18:03:54;3.75;;;1.88;;
65998;SDS011;52766;56.008;37.440;2023-07-09T18:06:51;5.72;;;2.35;;
65998;SDS011;52766;56.008;37.440;2023-07-09T18:11:02;4.63;;;2.03;;
65998;SDS011;52766;56.008;37.440;2023-07-09T18:25:45;4.45;;;2.20;;
65998;SDS011;52766;56.008;37.440;2023-07-09T18:28:31;4.72;;;2.10;;
65998;SDS011;52766;56.008;37.440;2023-07-09T18:39:27;5.20;;;2.15;;
65998;SDS011;52766;56.008;37.440;2023-07-09T18:49:09;5.43;;;2.17;;
65998;SDS011;52766;56.008;37.440;2023-07-09T18:51:50;2.90;;;2.00;;
65998;SDS011;52766;56.008;37.440;2023-07-09T18:54:54;4.10;;;2.25;;
65998;SDS011;52766;56.008;37.440;2023-07-09T18:57:55;7.55;;;2.63;;
65998;SDS011;52766;56.008;37.440;2023-07-09T19:15:52;9.73;;;4.05;;
65998;SDS011;52766;56.008;37.440;2023-07-09T19:19:14;6.43;;;2.95;;
65998;SDS011;52766;56.008;37.440;2023-07-09T19:22:18;4.82;;;2.70;;
65998;SDS011;52766;56.008;37.440;2023-07-09T19:25:15;7.18;;;2.28;;
65998;SDS011;52766;56.008;37.440;2023-07-09T19:28:26;5.88;;;2.40;;
65998;SDS011;52766;56.008;37.440;2023-07-09T19:30:59;7.63;;;2.65;;
65998;SDS011;52766;56.008;37.440;2023-07-09T19:37:27;5.78;;;2.58;;
65998;SDS011;52766;56.008;37.440;2023-07-09T19:44:17;6.63;;;2.65;;
65998;SDS011;52766;56.008;37.440;2023-07-09T19:50:32;8.82;;;2.70;;
65998;SDS011;52766;56.008;37.440;2023-07-09T19:53:44;7.60;;;2.65;;
65998;SDS011;52766;56.008;37.440;2023-07-09T19:59:41;6.22;;;2.50;;
65998;SDS011;52766;56.008;37.440;2023-07-09T20:03:46;4.22;;;2.13;;
65998;SDS011;52766;56.008;37.440;2023-07-09T20:07:00;4.57;;;2.20;;
65998;SDS011;52766;56.008;37.440;2023-07-09T20:09:42;3.88;;;2.13;;
65998;SDS011;52766;56.008;37.440;2023-07-09T20:19:32;3.90;;;2.20;;
65998;SDS011;52766;56.008;37.440;2023-07-09T20:22:39;6.07;;;2.90;;
65998;SDS011;52766;56.008;37.440;2023-07-09T20:26:15;6.22;;;2.58;;
65998;SDS011;52766;56.008;37.440;2023-07-09T20:32:42;5.13;;;2.38;;
65998;SDS011;52766;56.008;37.440;2023-07-09T20:35:31;4.47;;;1.88;;
65998;SDS011;52766;56.008;37.440;2023-07-09T20:38:18;2.75;;;1.75;;
65998;SDS011;52766;56.008;37.440;2023-07-09T20:41:29;3.85;;;1.90;;
65998;SDS011;52766;56.008;37.440;2023-07-09T20:43:59;4.22;;;2.33;;
65998;SDS011;52766;56.008;37.440;2023-07-09T20:47:12;3.97;;;2.25;;
65998;SDS011;52766;56.008;37.440;2023-07-09T20:49:54;5.15;;;2.45;;
65998;SDS011;52766;56.008;37.440;2023-07-09T20:52:35;3.08;;;1.98;;
65998;SDS011;52766;56.008;37.440;2023-07-09T20:55:09;4.57;;;2.13;;
65998;SDS011;52766;56.008;37.440;2023-07-09T20:57:45;4.68;;;2.30;;
65998;SDS011;52766;56.008;37.440;2023-07-09T21:00:20;5.22;;;2.30;;
65998;SDS011;52766;56.008;37.440;2023-07-09T21:02:51;4.25;;;2.00;;
65998;SDS011;52766;56.008;37.440;2023-07-09T21:08:21;6.53;;;2.75;;